Time,TemperatureF,DewpointF,PressureIn,WindDirection,WindDirectionDegrees,WindSpeedMPH,WindSpeedGustMPH,Humidity,HourlyPrecipIn,Conditions,Clouds,dailyrainin,SoftwareType,DateUTC
2013-08-18 00:01:00,64.5,58.5,30.13,South,191,2.0,3.0,81,0.00,,,0.00,WeatherCatV1.15B25,2013-08-18 07:01:00,
2013-08-18 00:06:00,64.6,58.6,30.13,SSW,211,1.0,1.0,81,0.00,,,0.00,WeatherCatV1.15B25,2013-08-18 07:06:00,
2013-08-18 00:11:00,64.6,58.6,30.13,SSW,193,3.0,3.0,81,0.00,,,0.00,WeatherCatV1.15B25,2013-08-18 07:11:00,
2013-08-18 00:16:00,64.4,58.4,30.13,South,170,1.0,2.0,81,0.00,,,0.00,WeatherCatV1.15B25,2013-08-18 07:16:00,
2013-08-18 00:21:00,64.2,58.6,30.13,South,175,2.0,4.0,82,0.00,,,0.00,WeatherCatV1.15B25,2013-08-18 07:21:00,
2013-08-18 00:26:00,63.9,58.6,30.13,SW,235,3.0,3.0,83,0.00,,,0.00,WeatherCatV1.15B25,2013-08-18 07:26:00,
2013-08-18 00:31:00,63.8,58.9,30.13,South,191,2.0,4.0,84,0.00,,,0.00,WeatherCatV1.15B25,2013-08-18 07:31:00,
2013-08-18 00:36:00,63.9,58.6,30.13,SSE,156,3.0,3.0,83,0.00,,,0.00,WeatherCatV1.15B25,2013-08-18 07:36:00,
2013-08-18 00:41:00,63.6,58.7,30.13,SSE,166,2.0,4.0,84,0.00,,,0.00,WeatherCatV1.15B25,2013-08-18 07:41:00,
2013-08-18 00:46:00,63.4,58.5,30.13,SW,217,1.0,3.0,84,0.00,,,0.00,WeatherCatV1.15B25,2013-08-18 07:46:00,
2013-08-18 00:51:00,63.3,58.7,30.13,SSW,197,1.0,4.0,85,0.00,,,0.00,WeatherCatV1.15B25,2013-08-18 07:51:00,
2013-08-18 00:56:00,63.2,58.6,30.13,SSW,204,1.0,3.0,85,0.00,,,0.00,WeatherCatV1.15B25,2013-08-18 07:56:00,
2013-08-18 01:01:00,63.2,58.6,30.13,South,179,4.0,6.0,85,0.00,,,0.00,WeatherCatV1.15B25,2013-08-18 08:01:00,
2013-08-18 01:06:00,63.3,58.7,30.13,SSE,155,2.0,3.0,85,0.00,,,0.00,WeatherCatV1.15B25,2013-08-18 08:06:00,
2013-08-18 01:11:00,63.2,58.6,30.13,SW,229,2.0,2.0,85,0.00,,,0.00,WeatherCatV1.15B25,2013-08-18 08:11:00,
2013-08-18 01:16:00,63.1,58.5,30.13,SSE,166,2.0,3.0,85,0.00,,,0.00,WeatherCatV1.15B25,2013-08-18 08:16:00,
2013-08-18 01:21:00,63.0,58.4,30.13,South,186,2.0,3.0,85,0.00,,,0.00,WeatherCatV1.15B25,2013-08-18 08:21:00,
2013-08-18 01:26:00,63.0,58.4,30.13,South,180,2.0,3.0,85,0.00,,,0.00,WeatherCatV1.15B25,2013-08-18 08:26:00,
2013-08-18 01:31:00,63.0,58.4,30.13,SW,233,5.0,6.0,85,0.00,,,0.00,WeatherCatV1.15B25,2013-08-18 08:31:00,
2013-08-18 01:36:00,63.1,58.5,30.13,SSW,205,1.0,2.0,85,0.00,,,0.00,WeatherCatV1.15B25,2013-08-18 08:36:00,
2013-08-18 01:41:00,63.0,58.4,30.13,SSE,153,3.0,4.0,85,0.00,,,0.00,WeatherCatV1.15B25,2013-08-18 08:41:00,
2013-08-18 01:46:00,63.2,58.6,30.13,SSW,198,2.0,3.0,85,0.00,,,0.00,WeatherCatV1.15B25,2013-08-18 08:46:00,
2013-08-18 01:51:00,63.5,58.6,30.13,SSW,204,1.0,2.0,84,0.00,,,0.00,WeatherCatV1.15B25,2013-08-18 08:51:00,
2013-08-18 01:56:00,63.3,58.4,30.13,SW,225,2.0,3.0,84,0.00,,,0.00,WeatherCatV1.15B25,2013-08-18 08:56:00,
2013-08-18 02:01:00,63.0,58.1,30.13,WSW,239,3.0,3.0,84,0.00,,,0.00,WeatherCatV1.15B25,2013-08-18 09:01:00,
2013-08-18 02:06:00,62.9,58.0,30.13,SSW,198,5.0,6.0,84,0.00,,,0.00,WeatherCatV1.15B25,2013-08-18 09:06:00,
2013-08-18 02:11:00,62.7,57.8,30.13,SSW,208,3.0,5.0,84,0.00,,,0.00,WeatherCatV1.15B25,2013-08-18 09:11:00,
2013-08-18 02:16:00,62.5,57.6,30.13,South,184,2.0,3.0,84,0.00,,,0.00,WeatherCatV1.15B25,2013-08-18 09:16:00,
2013-08-18 02:21:00,62.4,57.5,30.13,SW,236,1.0,2.0,84,0.00,,,0.00,WeatherCatV1.15B25,2013-08-18 09:21:00,
2013-08-18 02:26:00,62.2,57.6,30.13,SW,235,0.0,1.0,85,0.00,,,0.00,WeatherCatV1.15B25,2013-08-18 09:26:00,
2013-08-18 02:31:00,62.1,57.5,30.13,South,179,0.0,0.0,85,0.00,,,0.00,WeatherCatV1.15B25,2013-08-18 09:31:00,
2013-08-18 02:36:00,62.0,57.4,30.13,South,180,0.0,0.0,85,0.00,,,0.00,WeatherCatV1.15B25,2013-08-18 09:36:00,
2013-08-18 02:41:00,62.0,57.4,30.13,South,179,1.0,1.0,85,0.00,,,0.00,WeatherCatV1.15B25,2013-08-18 09:41:00,
2013-08-18 02:46:00,62.0,57.4,30.13,South,181,1.0,1.0,85,0.00,,,0.00,WeatherCatV1.15B25,2013-08-18 09:46:00,
2013-08-18 02:51:00,62.0,57.4,30.13,South,179,1.0,1.0,85,0.00,,,0.00,WeatherCatV1.15B25,2013-08-18 09:51:00,
2013-08-18 02:56:00,62.0,57.4,30.13,South,179,1.0,1.0,85,0.00,,,0.00,WeatherCatV1.15B25,2013-08-18 09:56:00,
2013-08-18 03:01:00,62.0,57.4,30.13,SSW,208,1.0,1.0,85,0.00,,,0.00,WeatherCatV1.15B25,2013-08-18 10:01:00,
2013-08-18 03:06:00,62.1,57.5,30.13,SW,214,2.0,3.0,85,0.00,,,0.00,WeatherCatV1.15B25,2013-08-18 10:06:00,
2013-08-18 03:11:00,62.4,57.8,30.13,South,183,2.0,2.0,85,0.00,,,0.00,WeatherCatV1.15B25,2013-08-18 10:11:00,
2013-08-18 03:16:00,62.5,57.6,30.13,SE,143,1.0,4.0,84,0.00,,,0.00,WeatherCatV1.15B25,2013-08-18 10:16:00,
2013-08-18 03:21:00,62.2,57.3,30.13,SW,222,1.0,2.0,84,0.00,,,0.00,WeatherCatV1.15B25,2013-08-18 10:21:00,
2013-08-18 03:26:00,62.1,57.5,30.13,SSW,202,2.0,3.0,85,0.00,,,0.00,WeatherCatV1.15B25,2013-08-18 10:26:00,
2013-08-18 03:31:00,62.0,57.4,30.13,SW,215,2.0,2.0,85,0.00,,,0.00,WeatherCatV1.15B25,2013-08-18 10:31:00,
2013-08-18 03:36:00,61.9,57.3,30.13,SSW,198,1.0,2.0,85,0.00,,,0.00,WeatherCatV1.15B25,2013-08-18 10:36:00,
2013-08-18 03:41:00,61.8,57.2,30.13,South,184,3.0,3.0,85,0.00,,,0.00,WeatherCatV1.15B25,2013-08-18 10:41:00,
2013-08-18 03:46:00,61.7,57.1,30.14,SE,146,1.0,2.0,85,0.00,,,0.00,WeatherCatV1.15B25,2013-08-18 10:46:00,
2013-08-18 03:51:00,61.6,57.0,30.14,SSW,201,2.0,3.0,85,0.00,,,0.00,WeatherCatV1.15B25,2013-08-18 10:51:00,
2013-08-18 03:56:00,61.6,57.0,30.14,SSW,198,2.0,2.0,85,0.00,,,0.00,WeatherCatV1.15B25,2013-08-18 10:56:00,
2013-08-18 04:01:00,61.5,56.9,30.14,SW,233,0.0,1.0,85,0.00,,,0.00,WeatherCatV1.15B25,2013-08-18 11:01:00,
2013-08-18 04:06:00,61.6,57.0,30.14,SE,124,1.0,1.0,85,0.00,,,0.00,WeatherCatV1.15B25,2013-08-18 11:06:00,
2013-08-18 04:11:00,61.6,57.0,30.14,SSW,201,0.0,1.0,85,0.00,,,0.00,WeatherCatV1.15B25,2013-08-18 11:11:00,
2013-08-18 04:16:00,61.6,57.0,30.14,SSW,211,0.0,0.0,85,0.00,,,0.00,WeatherCatV1.15B25,2013-08-18 11:16:00,
2013-08-18 04:21:00,61.6,57.0,30.14,South,178,1.0,1.0,85,0.00,,,0.00,WeatherCatV1.15B25,2013-08-18 11:21:00,
2013-08-18 04:26:00,61.5,56.9,30.14,SW,224,1.0,2.0,85,0.00,,,0.00,WeatherCatV1.15B25,2013-08-18 11:26:00,
2013-08-18 04:31:00,61.5,56.6,30.14,SSE,154,2.0,3.0,84,0.00,,,0.00,WeatherCatV1.15B25,2013-08-18 11:31:00,
2013-08-18 04:36:00,61.8,56.9,30.14,SW,225,0.0,2.0,84,0.00,,,0.00,WeatherCatV1.15B25,2013-08-18 11:36:00,
2013-08-18 04:41:00,61.8,56.6,30.14,South,171,1.0,3.0,83,0.00,,,0.00,WeatherCatV1.15B25,2013-08-18 11:41:00,
2013-08-18 04:46:00,61.6,56.7,30.14,SSW,211,4.0,5.0,84,0.00,,,0.00,WeatherCatV1.15B25,2013-08-18 11:46:00,
2013-08-18 04:51:00,61.4,56.5,30.14,SSW,206,3.0,4.0,84,0.00,,,0.00,WeatherCatV1.15B25,2013-08-18 11:51:00,
2013-08-18 04:56:00,61.3,56.4,30.14,SW,224,4.0,4.0,84,0.00,,,0.00,WeatherCatV1.15B25,2013-08-18 11:56:00,
2013-08-18 05:01:00,61.2,56.7,30.14,SW,233,3.0,6.0,85,0.00,,,0.00,WeatherCatV1.15B25,2013-08-18 12:01:00,
2013-08-18 05:06:00,61.1,56.6,30.14,South,174,2.0,4.0,85,0.00,,,0.00,WeatherCatV1.15B25,2013-08-18 12:06:00,
2013-08-18 05:11:00,60.9,56.0,30.14,South,186,3.0,5.0,84,0.00,,,0.00,WeatherCatV1.15B25,2013-08-18 12:11:00,
2013-08-18 05:16:00,60.8,56.3,30.14,SSW,212,2.0,3.0,85,0.00,,,0.00,WeatherCatV1.15B25,2013-08-18 12:16:00,
2013-08-18 05:21:00,60.8,56.3,30.14,SSW,198,0.0,3.0,85,0.00,,,0.00,WeatherCatV1.15B25,2013-08-18 12:21:00,
2013-08-18 05:26:00,60.7,55.8,30.15,SSW,207,1.0,2.0,84,0.00,,,0.00,WeatherCatV1.15B25,2013-08-18 12:26:00,
2013-08-18 05:31:00,60.6,55.7,30.15,SW,233,1.0,4.0,84,0.00,,,0.00,WeatherCatV1.15B25,2013-08-18 12:31:00,
2013-08-18 05:36:00,60.4,55.5,30.15,SSW,207,2.0,4.0,84,0.00,,,0.00,WeatherCatV1.15B25,2013-08-18 12:36:00,
2013-08-18 05:41:00,60.2,55.3,30.15,SW,225,2.0,3.0,84,0.00,,,0.00,WeatherCatV1.15B25,2013-08-18 12:41:00,
2013-08-18 05:46:00,60.1,55.6,30.15,SW,235,2.0,3.0,85,0.00,,,0.00,WeatherCatV1.15B25,2013-08-18 12:46:00,
2013-08-18 05:51:00,60.0,55.5,30.15,SW,229,2.0,3.0,85,0.00,,,0.00,WeatherCatV1.15B25,2013-08-18 12:51:00,
2013-08-18 05:56:00,59.9,55.4,30.15,WSW,246,1.0,2.0,85,0.00,,,0.00,WeatherCatV1.15B25,2013-08-18 12:56:00,
2013-08-18 06:01:00,60.2,55.7,30.15,SW,233,1.0,2.0,85,0.00,,,0.00,WeatherCatV1.15B25,2013-08-18 13:01:00,
2013-08-18 06:06:00,60.0,55.5,30.15,SSW,211,1.0,1.0,85,0.00,,,0.00,WeatherCatV1.15B25,2013-08-18 13:06:00,
2013-08-18 06:11:00,59.8,55.6,30.15,SW,229,0.0,2.0,86,0.00,,,0.00,WeatherCatV1.15B25,2013-08-18 13:11:00,
2013-08-18 06:16:00,59.6,55.4,30.15,South,173,0.0,2.0,86,0.00,,,0.00,WeatherCatV1.15B25,2013-08-18 13:16:00,
2013-08-18 06:21:00,59.6,55.4,30.15,South,173,0.0,0.0,86,0.00,,,0.00,WeatherCatV1.15B25,2013-08-18 13:21:00,
2013-08-18 06:26:00,59.5,55.3,30.15,South,173,0.0,1.0,86,0.00,,,0.00,WeatherCatV1.15B25,2013-08-18 13:26:00,
2013-08-18 06:31:00,59.5,55.3,30.15,South,173,0.0,0.0,86,0.00,,,0.00,WeatherCatV1.15B25,2013-08-18 13:31:00,
2013-08-18 06:36:00,59.6,55.4,30.15,South,174,0.0,0.0,86,0.00,,,0.00,WeatherCatV1.15B25,2013-08-18 13:36:00,
2013-08-18 06:41:00,59.6,55.4,30.15,South,173,0.0,0.0,86,0.00,,,0.00,WeatherCatV1.15B25,2013-08-18 13:41:00,
2013-08-18 06:46:00,59.7,55.5,30.15,SSE,150,0.0,0.0,86,0.00,,,0.00,WeatherCatV1.15B25,2013-08-18 13:46:00,
2013-08-18 06:51:00,59.7,55.5,30.15,SSE,147,0.0,0.0,86,0.00,,,0.00,WeatherCatV1.15B25,2013-08-18 13:51:00,
2013-08-18 06:56:00,59.8,55.6,30.15,SE,146,0.0,0.0,86,0.00,,,0.00,WeatherCatV1.15B25,2013-08-18 13:56:00,
2013-08-18 07:01:00,59.9,55.7,30.16,SSW,204,1.0,1.0,86,0.00,,,0.00,WeatherCatV1.15B25,2013-08-18 14:01:00,
2013-08-18 07:06:00,60.1,55.9,30.16,SSW,204,1.0,3.0,86,0.00,,,0.00,WeatherCatV1.15B25,2013-08-18 14:06:00,
2013-08-18 07:11:00,60.2,56.0,30.16,WSW,252,2.0,3.0,86,0.00,,,0.00,WeatherCatV1.15B25,2013-08-18 14:11:00,
2013-08-18 07:16:00,60.3,55.8,30.16,SSW,195,1.0,1.0,85,0.00,,,0.00,WeatherCatV1.15B25,2013-08-18 14:16:00,
2013-08-18 07:21:00,60.5,56.0,30.16,SSW,210,2.0,4.0,85,0.00,,,0.00,WeatherCatV1.15B25,2013-08-18 14:21:00,
2013-08-18 07:26:00,60.6,55.7,30.16,SSE,165,1.0,4.0,84,0.00,,,0.00,WeatherCatV1.15B25,2013-08-18 14:26:00,
2013-08-18 07:31:00,60.4,55.9,30.16,SW,224,5.0,5.0,85,0.00,,,0.00,WeatherCatV1.15B25,2013-08-18 14:31:00,
2013-08-18 07:36:00,60.3,55.8,30.16,SW,218,3.0,6.0,85,0.00,,,0.00,WeatherCatV1.15B25,2013-08-18 14:36:00,
2013-08-18 07:41:00,60.3,55.8,30.16,South,174,2.0,4.0,85,0.00,,,0.00,WeatherCatV1.15B25,2013-08-18 14:41:00,
2013-08-18 07:46:00,60.4,55.9,30.16,SSE,156,2.0,3.0,85,0.00,,,0.00,WeatherCatV1.15B25,2013-08-18 14:46:00,
2013-08-18 07:51:00,60.5,56.0,30.17,SSE,156,0.0,2.0,85,0.00,,,0.00,WeatherCatV1.15B25,2013-08-18 14:51:00,
2013-08-18 07:56:00,60.7,56.2,30.17,WSW,239,3.0,5.0,85,0.00,,,0.00,WeatherCatV1.15B25,2013-08-18 14:56:00,
2013-08-18 08:01:00,60.7,56.2,30.17,South,184,2.0,2.0,85,0.00,,,0.00,WeatherCatV1.15B25,2013-08-18 15:01:00,
2013-08-18 08:06:00,60.9,56.4,30.17,SSW,201,2.0,3.0,85,0.00,,,0.00,WeatherCatV1.15B25,2013-08-18 15:06:00,
2013-08-18 08:11:00,61.0,56.5,30.17,SSW,204,0.0,1.0,85,0.00,,,0.00,WeatherCatV1.15B25,2013-08-18 15:11:00,
2013-08-18 08:16:00,61.3,56.7,30.17,South,191,1.0,2.0,85,0.00,,,0.00,WeatherCatV1.15B25,2013-08-18 15:16:00,
2013-08-18 08:21:00,61.6,56.7,30.17,SE,138,3.0,3.0,84,0.00,,,0.00,WeatherCatV1.15B25,2013-08-18 15:21:00,
2013-08-18 08:26:00,61.8,56.6,30.17,SSW,201,2.0,4.0,83,0.00,,,0.00,WeatherCatV1.15B25,2013-08-18 15:26:00,
2013-08-18 08:31:00,62.2,57.0,30.17,SSW,208,5.0,5.0,83,0.00,,,0.00,WeatherCatV1.15B25,2013-08-18 15:31:00,
2013-08-18 08:36:00,62.6,57.4,30.17,SSE,156,4.0,4.0,83,0.00,,,0.00,WeatherCatV1.15B25,2013-08-18 15:36:00,
2013-08-18 08:41:00,62.8,57.2,30.17,South,173,0.0,1.0,82,0.00,,,0.00,WeatherCatV1.15B25,2013-08-18 15:41:00,
2013-08-18 08:46:00,62.9,57.0,30.17,SW,217,0.0,4.0,81,0.00,,,0.00,WeatherCatV1.15B25,2013-08-18 15:46:00,
2013-08-18 08:51:00,62.8,57.2,30.17,SSE,157,2.0,4.0,82,0.00,,,0.00,WeatherCatV1.15B25,2013-08-18 15:51:00,
2013-08-18 08:56:00,62.6,57.0,30.17,SW,215,1.0,6.0,82,0.00,,,0.00,WeatherCatV1.15B25,2013-08-18 15:56:00,
2013-08-18 09:01:00,62.4,56.8,30.17,SW,214,0.0,5.0,82,0.00,,,0.00,WeatherCatV1.15B25,2013-08-18 16:01:00,
2013-08-18 09:06:00,62.4,57.2,30.17,SSW,201,1.0,3.0,83,0.00,,,0.00,WeatherCatV1.15B25,2013-08-18 16:06:00,
2013-08-18 09:11:00,62.4,57.2,30.17,WSW,255,3.0,4.0,83,0.00,,,0.00,WeatherCatV1.15B25,2013-08-18 16:11:00,
2013-08-18 09:16:00,62.2,57.0,30.17,SW,233,5.0,5.0,83,0.00,,,0.00,WeatherCatV1.15B25,2013-08-18 16:16:00,
2013-08-18 09:21:00,62.1,57.2,30.17,WSW,257,1.0,3.0,84,0.00,,,0.00,WeatherCatV1.15B25,2013-08-18 16:21:00,
2013-08-18 09:26:00,62.4,57.5,30.17,SSE,152,1.0,2.0,84,0.00,,,0.00,WeatherCatV1.15B25,2013-08-18 16:26:00,
2013-08-18 09:31:00,62.6,57.4,30.17,South,176,3.0,6.0,83,0.00,,,0.00,WeatherCatV1.15B25,2013-08-18 16:31:00,
2013-08-18 09:36:00,62.9,57.7,30.17,SE,133,3.0,7.0,83,0.00,,,0.00,WeatherCatV1.15B25,2013-08-18 16:36:00,
2013-08-18 09:41:00,63.5,57.9,30.17,SW,224,4.0,9.0,82,0.00,,,0.00,WeatherCatV1.15B25,2013-08-18 16:41:00,
2013-08-18 09:46:00,63.8,57.9,30.17,SW,217,3.0,6.0,81,0.00,,,0.00,WeatherCatV1.15B25,2013-08-18 16:46:00,
2013-08-18 09:51:00,63.9,57.6,30.17,SE,145,1.0,5.0,80,0.00,,,0.00,WeatherCatV1.15B25,2013-08-18 16:51:00,
2013-08-18 09:56:00,64.0,57.7,30.17,South,177,3.0,10.0,80,0.00,,,0.00,WeatherCatV1.15B25,2013-08-18 16:56:00,
2013-08-18 10:01:00,64.0,57.7,30.17,SSE,156,5.0,6.0,80,0.00,,,0.00,WeatherCatV1.15B25,2013-08-18 17:01:00,
2013-08-18 10:06:00,64.5,58.2,30.16,SW,218,1.0,3.0,80,0.00,,,0.00,WeatherCatV1.15B25,2013-08-18 17:06:00,
2013-08-18 10:11:00,65.2,58.2,30.17,WSW,242,5.0,7.0,78,0.00,,,0.00,WeatherCatV1.15B25,2013-08-18 17:11:00,
2013-08-18 10:16:00,65.6,57.8,30.17,SSE,159,7.0,8.0,76,0.00,,,0.00,WeatherCatV1.15B25,2013-08-18 17:16:00,
2013-08-18 10:21:00,66.0,58.2,30.17,SSW,195,5.0,11.0,76,0.00,,,0.00,WeatherCatV1.15B25,2013-08-18 17:21:00,
2013-08-18 10:26:00,66.5,58.7,30.17,SSE,159,6.0,10.0,76,0.00,,,0.00,WeatherCatV1.15B25,2013-08-18 17:26:00,
2013-08-18 10:31:00,66.9,58.3,30.17,SSW,200,7.0,12.0,74,0.00,,,0.00,WeatherCatV1.15B25,2013-08-18 17:31:00,
2013-08-18 10:36:00,66.9,58.3,30.17,SSW,193,8.0,11.0,74,0.00,,,0.00,WeatherCatV1.15B25,2013-08-18 17:36:00,
2013-08-18 10:41:00,67.1,57.4,30.17,South,169,7.0,11.0,71,0.00,,,0.00,WeatherCatV1.15B25,2013-08-18 17:41:00,
2013-08-18 10:46:00,67.1,56.6,30.17,SSW,193,6.0,8.0,69,0.00,,,0.00,WeatherCatV1.15B25,2013-08-18 17:46:00,
2013-08-18 10:51:00,67.3,57.6,30.17,SW,214,5.0,7.0,71,0.00,,,0.00,WeatherCatV1.15B25,2013-08-18 17:51:00,
2013-08-18 10:56:00,67.9,56.9,30.16,SSE,149,5.0,10.0,68,0.00,,,0.00,WeatherCatV1.15B25,2013-08-18 17:56:00,
2013-08-18 11:01:00,68.5,57.9,30.17,SSW,199,5.0,5.0,69,0.00,,,0.00,WeatherCatV1.15B25,2013-08-18 18:01:00,
2013-08-18 11:06:00,68.6,57.6,30.17,SSW,201,4.0,9.0,68,0.00,,,0.00,WeatherCatV1.15B25,2013-08-18 18:06:00,
2013-08-18 11:11:00,68.8,56.5,30.17,SW,235,4.0,9.0,65,0.00,,,0.00,WeatherCatV1.15B25,2013-08-18 18:11:00,
2013-08-18 11:16:00,69.5,57.2,30.17,SSE,162,3.0,6.0,65,0.00,,,0.00,WeatherCatV1.15B25,2013-08-18 18:16:00,
2013-08-18 11:21:00,70.3,56.7,30.16,SW,235,4.0,5.0,62,0.00,,,0.00,WeatherCatV1.15B25,2013-08-18 18:21:00,
2013-08-18 11:26:00,70.0,56.8,30.17,WNW,291,3.0,9.0,63,0.00,,,0.00,WeatherCatV1.15B25,2013-08-18 18:26:00,
2013-08-18 11:31:00,69.9,57.2,30.16,WSW,242,0.0,2.0,64,0.00,,,0.00,WeatherCatV1.15B25,2013-08-18 18:31:00,
2013-08-18 11:36:00,69.9,56.7,30.16,SSW,208,6.0,7.0,63,0.00,,,0.00,WeatherCatV1.15B25,2013-08-18 18:36:00,
2013-08-18 11:41:00,70.0,56.8,30.16,SSE,162,5.0,8.0,63,0.00,,,0.00,WeatherCatV1.15B25,2013-08-18 18:41:00,
2013-08-18 11:46:00,70.4,56.7,30.16,SSE,163,1.0,8.0,62,0.00,,,0.00,WeatherCatV1.15B25,2013-08-18 18:46:00,
2013-08-18 11:51:00,70.4,56.7,30.16,NNW,330,3.0,10.0,62,0.00,,,0.00,WeatherCatV1.15B25,2013-08-18 18:51:00,
2013-08-18 11:56:00,70.7,56.6,30.16,NNW,338,2.0,5.0,61,0.00,,,0.00,WeatherCatV1.15B25,2013-08-18 18:56:00,
2013-08-18 12:01:00,71.3,57.1,30.16,SSE,167,2.0,10.0,61,0.00,,,0.00,WeatherCatV1.15B25,2013-08-18 19:01:00,
2013-08-18 12:06:00,71.7,57.5,30.16,SE,140,2.0,5.0,61,0.00,,,0.00,WeatherCatV1.15B25,2013-08-18 19:06:00,
2013-08-18 12:11:00,72.6,57.4,30.16,East,98,2.0,6.0,59,0.00,,,0.00,WeatherCatV1.15B25,2013-08-18 19:11:00,
2013-08-18 12:16:00,73.5,57.8,30.16,SSE,150,2.0,6.0,58,0.00,,,0.00,WeatherCatV1.15B25,2013-08-18 19:16:00,
2013-08-18 12:21:00,73.7,57.5,30.16,WNW,297,3.0,8.0,57,0.00,,,0.00,WeatherCatV1.15B25,2013-08-18 19:21:00,
2013-08-18 12:26:00,73.2,57.5,30.16,SW,219,8.0,11.0,58,0.00,,,0.00,WeatherCatV1.15B25,2013-08-18 19:26:00,
2013-08-18 12:31:00,72.8,58.1,30.16,WNW,291,2.0,11.0,60,0.00,,,0.00,WeatherCatV1.15B25,2013-08-18 19:31:00,
2013-08-18 12:36:00,73.1,57.9,30.16,South,171,3.0,9.0,59,0.00,,,0.00,WeatherCatV1.15B25,2013-08-18 19:36:00,
2013-08-18 12:41:00,73.4,58.2,30.16,SSW,198,7.0,13.0,59,0.00,,,0.00,WeatherCatV1.15B25,2013-08-18 19:41:00,
2013-08-18 12:46:00,73.6,58.8,30.16,WNW,288,3.0,3.0,60,0.00,,,0.00,WeatherCatV1.15B25,2013-08-18 19:46:00,
2013-08-18 12:51:00,73.3,58.1,30.16,SW,232,2.0,3.0,59,0.00,,,0.00,WeatherCatV1.15B25,2013-08-18 19:51:00,
2013-08-18 12:56:00,73.7,58.9,30.16,West,277,6.0,10.0,60,0.00,,,0.00,WeatherCatV1.15B25,2013-08-18 19:56:00,
2013-08-18 13:01:00,73.8,58.6,30.16,West,259,3.0,3.0,59,0.00,,,0.00,WeatherCatV1.15B25,2013-08-18 20:01:00,
2013-08-18 13:06:00,73.3,58.1,30.16,SW,231,1.0,11.0,59,0.00,,,0.00,WeatherCatV1.15B25,2013-08-18 20:06:00,
2013-08-18 13:11:00,73.7,58.5,30.16,WNW,302,8.0,9.0,59,0.00,,,0.00,WeatherCatV1.15B25,2013-08-18 20:11:00,
2013-08-18 13:16:00,73.5,58.3,30.16,SW,218,6.0,7.0,59,0.00,,,0.00,WeatherCatV1.15B25,2013-08-18 20:16:00,
2013-08-18 13:21:00,73.8,58.6,30.16,West,272,8.0,9.0,59,0.00,,,0.00,WeatherCatV1.15B25,2013-08-18 20:21:00,
2013-08-18 13:26:00,74.3,58.5,30.16,SSW,208,5.0,10.0,58,0.00,,,0.00,WeatherCatV1.15B25,2013-08-18 20:26:00,
2013-08-18 13:31:00,73.5,58.3,30.16,West,267,3.0,11.0,59,0.00,,,0.00,WeatherCatV1.15B25,2013-08-18 20:31:00,
2013-08-18 13:36:00,73.6,58.4,30.16,SW,221,7.0,12.0,59,0.00,,,0.00,WeatherCatV1.15B25,2013-08-18 20:36:00,
2013-08-18 13:41:00,73.8,59.0,30.16,WNW,290,4.0,9.0,60,0.00,,,0.00,WeatherCatV1.15B25,2013-08-18 20:41:00,
2013-08-18 13:46:00,74.1,58.8,30.16,SW,229,5.0,6.0,59,0.00,,,0.00,WeatherCatV1.15B25,2013-08-18 20:46:00,
2013-08-18 13:51:00,74.1,58.8,30.16,South,176,4.0,7.0,59,0.00,,,0.00,WeatherCatV1.15B25,2013-08-18 20:51:00,
2013-08-18 13:56:00,74.3,58.5,30.16,South,169,6.0,12.0,58,0.00,,,0.00,WeatherCatV1.15B25,2013-08-18 20:56:00,
2013-08-18 14:01:00,74.8,59.5,30.16,SW,215,13.0,13.0,59,0.00,,,0.00,WeatherCatV1.15B25,2013-08-18 21:01:00,
2013-08-18 14:06:00,74.2,58.5,30.16,WSW,246,11.0,16.0,58,0.00,,,0.00,WeatherCatV1.15B25,2013-08-18 21:06:00,
2013-08-18 14:11:00,74.0,58.3,30.16,West,261,8.0,15.0,58,0.00,,,0.00,WeatherCatV1.15B25,2013-08-18 21:11:00,
2013-08-18 14:16:00,74.1,58.8,30.16,SSW,198,13.0,13.0,59,0.00,,,0.00,WeatherCatV1.15B25,2013-08-18 21:16:00,
2013-08-18 14:21:00,74.2,58.9,30.16,SW,221,5.0,12.0,59,0.00,,,0.00,WeatherCatV1.15B25,2013-08-18 21:21:00,
2013-08-18 14:26:00,74.4,58.6,30.16,NW,311,2.0,10.0,58,0.00,,,0.00,WeatherCatV1.15B25,2013-08-18 21:26:00,
2013-08-18 14:31:00,74.7,58.9,30.16,WSW,246,4.0,10.0,58,0.00,,,0.00,WeatherCatV1.15B25,2013-08-18 21:31:00,
2013-08-18 14:36:00,75.3,59.0,30.16,South,184,4.0,8.0,57,0.00,,,0.00,WeatherCatV1.15B25,2013-08-18 21:36:00,
2013-08-18 14:41:00,74.9,59.6,30.16,WNW,298,8.0,8.0,59,0.00,,,0.00,WeatherCatV1.15B25,2013-08-18 21:41:00,
2013-08-18 14:46:00,74.8,59.0,30.16,WSW,239,6.0,10.0,58,0.00,,,0.00,WeatherCatV1.15B25,2013-08-18 21:46:00,
2013-08-18 14:52:00,74.8,59.0,30.16,West,270,5.0,13.0,58,0.00,,,0.00,WeatherCatV1.15B25,2013-08-18 21:52:00,
2013-08-18 14:57:00,75.4,59.1,30.16,WNW,301,15.0,15.0,57,0.00,,,0.00,WeatherCatV1.15B25,2013-08-18 21:57:00,
2013-08-18 15:02:00,74.9,58.1,30.16,West,267,6.0,12.0,56,0.00,,,0.00,WeatherCatV1.15B25,2013-08-18 22:02:00,
2013-08-18 15:07:00,74.5,58.2,30.15,SW,219,10.0,15.0,57,0.00,,,0.00,WeatherCatV1.15B25,2013-08-18 22:07:00,
2013-08-18 15:12:00,74.4,58.2,30.15,SW,232,8.0,10.0,57,0.00,,,0.00,WeatherCatV1.15B25,2013-08-18 22:12:00,
2013-08-18 15:17:00,75.1,58.8,30.15,SSW,195,4.0,9.0,57,0.00,,,0.00,WeatherCatV1.15B25,2013-08-18 22:17:00,
2013-08-18 15:22:00,75.2,58.4,30.15,SSE,165,6.0,11.0,56,0.00,,,0.00,WeatherCatV1.15B25,2013-08-18 22:22:00,
2013-08-18 15:27:00,75.6,58.8,30.15,SW,233,8.0,12.0,56,0.00,,,0.00,WeatherCatV1.15B25,2013-08-18 22:27:00,
2013-08-18 15:32:00,75.5,58.2,30.14,SSW,204,8.0,13.0,55,0.00,,,0.00,WeatherCatV1.15B25,2013-08-18 22:32:00,
2013-08-18 15:37:00,75.1,58.3,30.14,WSW,242,3.0,7.0,56,0.00,,,0.00,WeatherCatV1.15B25,2013-08-18 22:37:00,
2013-08-18 15:42:00,75.7,58.4,30.14,WNW,283,8.0,11.0,55,0.00,,,0.00,WeatherCatV1.15B25,2013-08-18 22:42:00,
2013-08-18 15:47:00,75.7,59.4,30.14,South,187,6.0,9.0,57,0.00,,,0.00,WeatherCatV1.15B25,2013-08-18 22:47:00,
2013-08-18 15:52:00,75.5,57.7,30.14,SSW,205,7.0,10.0,54,0.00,,,0.00,WeatherCatV1.15B25,2013-08-18 22:52:00,
2013-08-18 15:57:00,76.1,59.2,30.15,SSE,162,8.0,11.0,56,0.00,,,0.00,WeatherCatV1.15B25,2013-08-18 22:57:00,
2013-08-18 16:02:00,76.3,59.4,30.15,WSW,257,1.0,4.0,56,0.00,,,0.00,WeatherCatV1.15B25,2013-08-18 23:02:00,
2013-08-18 16:07:00,76.3,58.9,30.14,SSW,207,3.0,9.0,55,0.00,,,0.00,WeatherCatV1.15B25,2013-08-18 23:07:00,
2013-08-18 16:12:00,77.1,59.2,30.14,NW,319,3.0,8.0,54,0.00,,,0.00,WeatherCatV1.15B25,2013-08-18 23:12:00,
2013-08-18 16:17:00,77.3,59.9,30.14,SSW,204,8.0,11.0,55,0.00,,,0.00,WeatherCatV1.15B25,2013-08-18 23:17:00,
2013-08-18 16:22:00,76.8,58.9,30.14,WSW,252,8.0,8.0,54,0.00,,,0.00,WeatherCatV1.15B25,2013-08-18 23:22:00,
2013-08-18 16:27:00,76.5,59.1,30.14,NW,308,3.0,4.0,55,0.00,,,0.00,WeatherCatV1.15B25,2013-08-18 23:27:00,
2013-08-18 16:32:00,76.7,58.8,30.14,WSW,252,2.0,7.0,54,0.00,,,0.00,WeatherCatV1.15B25,2013-08-18 23:32:00,
2013-08-18 16:37:00,75.8,58.5,30.14,SSW,204,7.0,9.0,55,0.00,,,0.00,WeatherCatV1.15B25,2013-08-18 23:37:00,
2013-08-18 16:42:00,75.1,58.3,30.14,SSE,159,4.0,6.0,56,0.00,,,0.00,WeatherCatV1.15B25,2013-08-18 23:42:00,
2013-08-18 16:47:00,75.0,58.7,30.14,SSE,166,3.0,13.0,57,0.00,,,0.00,WeatherCatV1.15B25,2013-08-18 23:47:00,
2013-08-18 16:52:00,75.0,59.2,30.14,South,172,4.0,6.0,58,0.00,,,0.00,WeatherCatV1.15B25,2013-08-18 23:52:00,
2013-08-18 16:57:00,74.9,58.6,30.13,SSW,193,7.0,12.0,57,0.00,,,0.00,WeatherCatV1.15B25,2013-08-18 23:57:00,
2013-08-18 17:02:00,75.0,59.7,30.14,SSW,211,3.0,6.0,59,0.00,,,0.00,WeatherCatV1.15B25,2013-08-19 00:02:00,
2013-08-18 17:07:00,75.6,59.8,30.13,SSW,193,3.0,6.0,58,0.00,,,0.00,WeatherCatV1.15B25,2013-08-19 00:07:00,
2013-08-18 17:12:00,75.4,59.1,30.14,West,261,1.0,12.0,57,0.00,,,0.00,WeatherCatV1.15B25,2013-08-19 00:12:00,
2013-08-18 17:17:00,74.7,58.9,30.13,SW,218,7.0,9.0,58,0.00,,,0.00,WeatherCatV1.15B25,2013-08-19 00:17:00,
2013-08-18 17:22:00,74.5,58.7,30.13,WNW,295,6.0,9.0,58,0.00,,,0.00,WeatherCatV1.15B25,2013-08-19 00:22:00,
2013-08-18 17:27:00,74.2,58.9,30.13,SSW,200,6.0,7.0,59,0.00,,,0.00,WeatherCatV1.15B25,2013-08-19 00:27:00,
2013-08-18 17:32:00,74.1,58.8,30.13,SSW,201,3.0,8.0,59,0.00,,,0.00,WeatherCatV1.15B25,2013-08-19 00:32:00,
2013-08-18 17:37:00,73.9,58.2,30.13,SSW,198,2.0,15.0,58,0.00,,,0.00,WeatherCatV1.15B25,2013-08-19 00:37:00,
2013-08-18 17:42:00,74.1,58.8,30.13,WSW,253,3.0,7.0,59,0.00,,,0.00,WeatherCatV1.15B25,2013-08-19 00:42:00,
2013-08-18 17:47:00,74.1,58.4,30.13,WSW,245,2.0,8.0,58,0.00,,,0.00,WeatherCatV1.15B25,2013-08-19 00:47:00,
2013-08-18 17:52:00,74.0,58.7,30.13,WSW,256,3.0,8.0,59,0.00,,,0.00,WeatherCatV1.15B25,2013-08-19 00:52:00,
2013-08-18 17:57:00,73.9,58.7,30.13,NNW,347,2.0,5.0,59,0.00,,,0.00,WeatherCatV1.15B25,2013-08-19 00:57:00,
2013-08-18 18:02:00,73.8,58.6,30.13,SSE,163,7.0,7.0,59,0.00,,,0.00,WeatherCatV1.15B25,2013-08-19 01:02:00,
2013-08-18 18:07:00,74.0,58.7,30.12,SW,219,2.0,6.0,59,0.00,,,0.00,WeatherCatV1.15B25,2013-08-19 01:07:00,
2013-08-18 18:12:00,73.5,58.3,30.12,West,263,3.0,8.0,59,0.00,,,0.00,WeatherCatV1.15B25,2013-08-19 01:12:00,
2013-08-18 18:17:00,73.7,58.5,30.12,SW,214,2.0,8.0,59,0.00,,,0.00,WeatherCatV1.15B25,2013-08-19 01:17:00,
2013-08-18 18:22:00,73.9,58.2,30.12,South,179,6.0,10.0,58,0.00,,,0.00,WeatherCatV1.15B25,2013-08-19 01:22:00,
2013-08-18 18:27:00,73.6,58.8,30.12,SSW,194,3.0,3.0,60,0.00,,,0.00,WeatherCatV1.15B25,2013-08-19 01:27:00,
2013-08-18 18:32:00,73.1,58.4,30.12,WSW,257,6.0,8.0,60,0.00,,,0.00,WeatherCatV1.15B25,2013-08-19 01:32:00,
2013-08-18 18:37:00,73.2,58.5,30.12,West,274,5.0,6.0,60,0.00,,,0.00,WeatherCatV1.15B25,2013-08-19 01:37:00,
2013-08-18 18:42:00,72.7,58.0,30.12,WNW,300,3.0,6.0,60,0.00,,,0.00,WeatherCatV1.15B25,2013-08-19 01:42:00,
2013-08-18 18:47:00,72.6,57.9,30.12,SSW,198,4.0,5.0,60,0.00,,,0.00,WeatherCatV1.15B25,2013-08-19 01:47:00,
2013-08-18 18:52:00,72.8,58.6,30.12,SE,126,1.0,2.0,61,0.00,,,0.00,WeatherCatV1.15B25,2013-08-19 01:52:00,
2013-08-18 18:57:00,72.7,58.0,30.12,WSW,238,4.0,4.0,60,0.00,,,0.00,WeatherCatV1.15B25,2013-08-19 01:57:00,
2013-08-18 19:02:00,72.5,57.8,30.12,SW,224,3.0,4.0,60,0.00,,,0.00,WeatherCatV1.15B25,2013-08-19 02:02:00,
2013-08-18 19:07:00,72.6,58.4,30.11,SW,226,3.0,3.0,61,0.00,,,0.00,WeatherCatV1.15B25,2013-08-19 02:07:00,
2013-08-18 19:12:00,72.3,58.1,30.11,WSW,248,2.0,5.0,61,0.00,,,0.00,WeatherCatV1.15B25,2013-08-19 02:12:00,
2013-08-18 19:17:00,72.0,57.8,30.12,WSW,255,1.0,1.0,61,0.00,,,0.00,WeatherCatV1.15B25,2013-08-19 02:17:00,
2013-08-18 19:22:00,71.9,58.2,30.12,WSW,255,2.0,2.0,62,0.00,,,0.00,WeatherCatV1.15B25,2013-08-19 02:22:00,
2013-08-18 19:27:00,71.8,58.1,30.11,NNW,327,4.0,5.0,62,0.00,,,0.00,WeatherCatV1.15B25,2013-08-19 02:27:00,
2013-08-18 19:32:00,71.5,57.8,30.11,NNW,333,4.0,4.0,62,0.00,,,0.00,WeatherCatV1.15B25,2013-08-19 02:32:00,
2013-08-18 19:37:00,71.3,58.0,30.11,WNW,291,2.0,4.0,63,0.00,,,0.00,WeatherCatV1.15B25,2013-08-19 02:37:00,
2013-08-18 19:42:00,71.1,58.3,30.11,West,281,2.0,4.0,64,0.00,,,0.00,WeatherCatV1.15B25,2013-08-19 02:42:00,
2013-08-18 19:47:00,71.3,58.9,30.11,NW,305,1.0,3.0,65,0.00,,,0.00,WeatherCatV1.15B25,2013-08-19 02:47:00,
2013-08-18 19:52:00,71.4,58.6,30.12,NW,319,3.0,3.0,64,0.00,,,0.00,WeatherCatV1.15B25,2013-08-19 02:52:00,
2013-08-18 19:57:00,70.7,58.3,30.12,North,358,5.0,5.0,65,0.00,,,0.00,WeatherCatV1.15B25,2013-08-19 02:57:00,
2013-08-18 20:02:00,69.9,58.0,30.12,NW,325,2.0,3.0,66,0.00,,,0.00,WeatherCatV1.15B25,2013-08-19 03:02:00,
2013-08-18 20:07:00,69.6,58.1,30.12,NW,319,1.0,5.0,67,0.00,,,0.00,WeatherCatV1.15B25,2013-08-19 03:07:00,
2013-08-18 20:12:00,69.3,57.9,30.12,NW,316,3.0,3.0,67,0.00,,,0.00,WeatherCatV1.15B25,2013-08-19 03:12:00,
2013-08-18 20:17:00,69.0,58.0,30.12,NNE,22,5.0,6.0,68,0.00,,,0.00,WeatherCatV1.15B25,2013-08-19 03:17:00,
2013-08-18 20:22:00,68.7,57.7,30.12,WNW,302,3.0,5.0,68,0.00,,,0.00,WeatherCatV1.15B25,2013-08-19 03:22:00,
2013-08-18 20:27:00,68.4,57.8,30.12,NNE,22,2.0,4.0,69,0.00,,,0.00,WeatherCatV1.15B25,2013-08-19 03:27:00,
2013-08-18 20:32:00,68.3,57.7,30.12,North,11,2.0,4.0,69,0.00,,,0.00,WeatherCatV1.15B25,2013-08-19 03:32:00,
2013-08-18 20:37:00,68.1,57.9,30.12,NNE,33,3.0,5.0,70,0.00,,,0.00,WeatherCatV1.15B25,2013-08-19 03:37:00,
2013-08-18 20:42:00,67.9,57.7,30.12,North,352,2.0,4.0,70,0.00,,,0.00,WeatherCatV1.15B25,2013-08-19 03:42:00,
2013-08-18 20:47:00,67.6,57.5,30.12,NNE,25,2.0,3.0,70,0.00,,,0.00,WeatherCatV1.15B25,2013-08-19 03:47:00,
2013-08-18 20:52:00,67.4,57.3,30.12,NW,313,2.0,9.0,70,0.00,,,0.00,WeatherCatV1.15B25,2013-08-19 03:52:00,
2013-08-18 20:57:00,67.2,57.5,30.12,NNE,19,5.0,6.0,71,0.00,,,0.00,WeatherCatV1.15B25,2013-08-19 03:57:00,
2013-08-18 21:01:00,67.1,57.4,30.13,NNE,33,2.0,3.0,71,0.00,,,0.00,WeatherCatV1.15B25,2013-08-19 04:01:00,
2013-08-18 21:06:00,66.9,57.2,30.12,North,359,3.0,3.0,71,0.00,,,0.00,WeatherCatV1.15B25,2013-08-19 04:06:00,
2013-08-18 21:11:00,66.9,57.2,30.13,NNE,13,3.0,3.0,71,0.00,,,0.00,WeatherCatV1.15B25,2013-08-19 04:11:00,
2013-08-18 21:16:00,66.8,57.1,30.13,NW,310,1.0,2.0,71,0.00,,,0.00,WeatherCatV1.15B25,2013-08-19 04:16:00,
2013-08-18 21:21:00,66.7,57.0,30.13,WNW,296,1.0,3.0,71,0.00,,,0.00,WeatherCatV1.15B25,2013-08-19 04:21:00,
2013-08-18 21:26:00,66.5,56.8,30.13,NW,317,1.0,5.0,71,0.00,,,0.00,WeatherCatV1.15B25,2013-08-19 04:26:00,
2013-08-18 21:31:00,66.4,56.7,30.13,West,275,2.0,5.0,71,0.00,,,0.00,WeatherCatV1.15B25,2013-08-19 04:31:00,
2013-08-18 21:36:00,66.3,56.6,30.13,North,358,2.0,3.0,71,0.00,,,0.00,WeatherCatV1.15B25,2013-08-19 04:36:00,
2013-08-18 21:41:00,66.2,56.5,30.13,WNW,288,3.0,4.0,71,0.00,,,0.00,WeatherCatV1.15B25,2013-08-19 04:41:00,
2013-08-18 21:46:00,66.2,56.5,30.13,NNE,29,2.0,3.0,71,0.00,,,0.00,WeatherCatV1.15B25,2013-08-19 04:46:00,
2013-08-18 21:51:00,66.0,56.3,30.13,NE,41,2.0,3.0,71,0.00,,,0.00,WeatherCatV1.15B25,2013-08-19 04:51:00,
2013-08-18 21:56:00,65.9,56.6,30.13,NNE,30,2.0,2.0,72,0.00,,,0.00,WeatherCatV1.15B25,2013-08-19 04:56:00,
2013-08-18 22:01:00,65.8,56.1,30.13,NE,36,1.0,2.0,71,0.00,,,0.00,WeatherCatV1.15B25,2013-08-19 05:01:00,
2013-08-18 22:06:00,65.7,56.0,30.13,ENE,62,4.0,5.0,71,0.00,,,0.00,WeatherCatV1.15B25,2013-08-19 05:06:00,
2013-08-18 22:11:00,65.6,55.9,30.13,NNE,25,5.0,6.0,71,0.00,,,0.00,WeatherCatV1.15B25,2013-08-19 05:11:00,
2013-08-18 22:16:00,65.5,55.8,30.12,NE,41,2.0,6.0,71,0.00,,,0.00,WeatherCatV1.15B25,2013-08-19 05:16:00,
2013-08-18 22:21:00,65.4,55.4,30.12,North,351,5.0,9.0,70,0.00,,,0.00,WeatherCatV1.15B25,2013-08-19 05:21:00,
2013-08-18 22:26:00,65.3,55.3,30.12,NNE,26,2.0,4.0,70,0.00,,,0.00,WeatherCatV1.15B25,2013-08-19 05:26:00,
2013-08-18 22:31:00,65.2,55.2,30.12,North,8,4.0,4.0,70,0.00,,,0.00,WeatherCatV1.15B25,2013-08-19 05:31:00,
2013-08-18 22:36:00,65.1,55.1,30.13,North,11,2.0,4.0,70,0.00,,,0.00,WeatherCatV1.15B25,2013-08-19 05:36:00,
2013-08-18 22:41:00,65.1,55.1,30.12,NNE,33,2.0,3.0,70,0.00,,,0.00,WeatherCatV1.15B25,2013-08-19 05:41:00,
2013-08-18 22:46:00,65.2,55.2,30.13,NNW,335,4.0,6.0,70,0.00,,,0.00,WeatherCatV1.15B25,2013-08-19 05:46:00,
2013-08-18 22:51:00,65.2,55.2,30.13,NNW,331,1.0,1.0,70,0.00,,,0.00,WeatherCatV1.15B25,2013-08-19 05:51:00,
2013-08-18 22:56:00,65.2,55.6,30.13,WNW,302,1.0,1.0,71,0.00,,,0.00,WeatherCatV1.15B25,2013-08-19 05:56:00,
2013-08-18 23:01:00,65.0,55.4,30.13,WNW,298,0.0,2.0,71,0.00,,,0.00,WeatherCatV1.15B25,2013-08-19 06:01:00,
2013-08-18 23:06:00,64.9,55.7,30.13,West,266,0.0,1.0,72,0.00,,,0.00,WeatherCatV1.15B25,2013-08-19 06:06:00,
2013-08-18 23:11:00,65.0,55.0,30.13,NW,322,1.0,2.0,70,0.00,,,0.00,WeatherCatV1.15B25,2013-08-19 06:11:00,
2013-08-18 23:16:00,64.9,54.9,30.13,North,352,0.0,2.0,70,0.00,,,0.00,WeatherCatV1.15B25,2013-08-19 06:16:00,
2013-08-18 23:21:00,64.6,54.6,30.13,NE,44,0.0,0.0,70,0.00,,,0.00,WeatherCatV1.15B25,2013-08-19 06:21:00,
2013-08-18 23:26:00,64.5,54.1,30.13,NW,306,2.0,3.0,69,0.00,,,0.00,WeatherCatV1.15B25,2013-08-19 06:26:00,
2013-08-18 23:31:00,64.1,54.5,30.13,ENE,70,2.0,3.0,71,0.00,,,0.00,WeatherCatV1.15B25,2013-08-19 06:31:00,
2013-08-18 23:36:00,63.9,53.9,30.13,North,1,2.0,3.0,70,0.00,,,0.00,WeatherCatV1.15B25,2013-08-19 06:36:00,
2013-08-18 23:41:00,63.8,53.4,30.13,NNW,341,3.0,6.0,69,0.00,,,0.00,WeatherCatV1.15B25,2013-08-19 06:41:00,
2013-08-18 23:46:00,63.9,53.5,30.13,NNW,341,2.0,7.0,69,0.00,,,0.00,WeatherCatV1.15B25,2013-08-19 06:46:00,
2013-08-18 23:51:00,63.9,53.5,30.13,NW,308,2.0,5.0,69,0.00,,,0.00,WeatherCatV1.15B25,2013-08-19 06:51:00,
2013-08-18 23:56:00,64.0,53.6,30.13,North,1,2.0,4.0,69,0.00,,,0.00,WeatherCatV1.15B25,2013-08-19 06:56:00,